Time;durP1;ratioP1;P1;durP2;ratioP2;P2;SDS_P1;SDS_P2;PMS_P1;PMS_P2;Temp;Humidity;BMP_temperature;BMP_pressure;BME280_temperature;BME280_humidity;BME280_pressure;Samples;Min_cycle;Max_cycle;Signal;HPM_P1;HPM_P2
2022/08/19 00:01:50;;;;;;;27.58;20.57;;;;;;;17.78;98.66;94445.19;1679113;83;21640;-52
2022/08/19 00:04:18;;;;;;;27.80;19.87;;;;;;;17.71;97.97;94445.67;1677173;83;21473;-54
2022/08/19 00:06:46;;;;;;;23.25;16.30;;;;;;;17.64;98.57;94438.56;1678622;84;21879;-51
2022/08/19 00:09:15;;;;;;;25.50;15.48;;;;;;;17.64;98.84;94430.86;1674628;84;21002;-53
2022/08/19 00:11:44;;;;;;;24.60;15.55;;;;;;;17.64;98.42;94428.08;1680148;83;20994;-52
2022/08/19 00:14:16;;;;;;;18.52;16.62;;;;;;;17.62;98.35;94432.73;1678068;83;21523;-51
2022/08/19 00:16:45;;;;;;;22.75;17.95;;;;;;;17.64;98.85;94430.86;1685477;83;21144;-51
2022/08/19 00:19:13;;;;;;;19.05;16.27;;;;;;;17.65;98.73;94433.12;1676287;83;21199;-52
2022/08/19 00:21:41;;;;;;;19.37;15.70;;;;;;;17.61;98.16;94427.05;1635353;85;21510;-52
2022/08/19 00:24:10;;;;;;;24.72;15.53;;;;;;;17.57;97.95;94425.75;1615673;86;21039;-52
2022/08/19 00:26:37;;;;;;;20.37;17.23;;;;;;;17.55;98.02;94436.63;1656061;85;21015;-52
2022/08/19 00:29:06;;;;;;;25.08;18.52;;;;;;;17.55;98.12;94431.84;1634335;86;21036;-51
2022/08/19 00:31:33;;;;;;;26.05;16.90;;;;;;;17.57;98.22;94436.88;1656095;85;21266;-51
2022/08/19 00:34:01;;;;;;;27.07;16.95;;;;;;;17.59;98.31;94441.31;1660361;85;21184;-51
2022/08/19 00:36:29;;;;;;;24.02;16.23;;;;;;;17.57;98.38;94448.01;1660130;85;21542;-52
2022/08/19 00:38:58;;;;;;;29.90;18.67;;;;;;;17.49;98.13;94448.36;1653890;85;20979;-52
2022/08/19 00:41:25;;;;;;;23.60;19.35;;;;;;;17.37;98.35;94447.55;1662162;85;20995;-53
2022/08/19 00:44:04;;;;;;;24.25;18.67;;;;;;;17.27;98.77;94454.53;1655319;85;21148;-52
2022/08/19 00:46:33;;;;;;;19.90;16.85;;;;;;;17.24;99.31;94458.95;1661886;85;21077;-52
2022/08/19 00:49:02;;;;;;;26.75;17.92;;;;;;;17.21;99.41;94465.48;1639045;85;21173;-52
2022/08/19 00:51:32;;;;;;;23.25;17.32;;;;;;;17.13;99.58;94465.19;1625998;86;21066;-50
2022/08/19 00:54:00;;;;;;;27.75;20.00;;;;;;;17.07;100.00;94465.78;1654681;85;21037;-51
2022/08/19 00:56:28;;;;;;;27.00;19.77;;;;;;;17.04;100.00;94466.00;1637876;85;21947;-51
2022/08/19 00:58:57;;;;;;;36.45;18.75;;;;;;;17.02;100.00;94474.08;1660636;85;20965;-50
2022/08/19 01:01:25;;;;;;;29.75;18.27;;;;;;;17.03;100.00;94476.38;1659088;85;21179;-50
2022/08/19 01:03:52;;;;;;;27.75;16.52;;;;;;;17.05;100.00;94471.70;1658344;85;21113;-53
2022/08/19 01:06:20;;;;;;;29.25;18.52;;;;;;;17.08;100.00;94469.34;1634845;86;21035;-51
2022/08/19 01:08:49;;;;;;;23.92;19.32;;;;;;;17.09;100.00;94470.86;1660592;85;21282;-51
2022/08/19 01:11:17;;;;;;;25.45;18.12;;;;;;;17.09;100.00;94479.20;1656825;85;21001;-52
2022/08/19 01:13:44;;;;;;;23.38;16.42;;;;;;;17.12;100.00;94478.20;1661729;85;20978;-52
2022/08/19 01:16:12;;;;;;;22.13;16.67;;;;;;;17.19;100.00;94474.95;1655604;85;21030;-51
2022/08/19 01:18:41;;;;;;;23.85;17.52;;;;;;;17.27;100.00;94476.78;1655928;85;21014;-51
2022/08/19 01:21:26;;;;;;;27.60;18.57;;;;;;;17.32;100.00;94474.65;1648935;85;21232;-51
2022/08/19 01:23:54;;;;;;;26.90;18.80;;;;;;;17.34;100.00;94470.03;1659178;86;20967;-51
2022/08/19 01:26:23;;;;;;;22.73;17.17;;;;;;;17.38;100.00;94469.94;1659188;85;21015;-51
2022/08/19 01:28:54;;;;;;;24.20;17.23;;;;;;;17.42;100.00;94463.50;1658357;85;21069;-51
2022/08/19 01:31:26;;;;;;;23.95;17.10;;;;;;;17.48;100.00;94469.09;1656645;85;21498;-52
2022/08/19 01:33:57;;;;;;;21.02;17.90;;;;;;;17.52;100.00;94464.83;1658671;85;21873;-52
2022/08/19 01:36:35;;;;;;;29.65;20.17;;;;;;;17.51;100.00;94466.09;1659605;85;20968;-52
2022/08/19 01:39:07;;;;;;;32.30;18.82;;;;;;;17.46;100.00;94479.97;1658068;85;21041;-52
2022/08/19 01:41:35;;;;;;;23.83;17.40;;;;;;;17.47;100.00;94491.22;1664439;85;21016;-52
2022/08/19 01:44:04;;;;;;;24.30;16.55;;;;;;;17.51;100.00;94492.52;1663074;85;21117;-52
2022/08/19 01:46:32;;;;;;;29.82;20.70;;;;;;;17.51;100.00;94497.30;1655625;85;21271;-52
2022/08/19 01:49:01;;;;;;;23.22;17.85;;;;;;;17.52;100.00;94491.88;1653795;85;21081;-52
2022/08/19 01:51:30;;;;;;;24.60;16.97;;;;;;;17.52;100.00;94498.20;1656488;85;21082;-51
2022/08/19 01:53:58;;;;;;;29.92;19.15;;;;;;;17.50;99.91;94502.73;1653908;85;20970;-51
2022/08/19 01:56:25;;;;;;;30.10;20.90;;;;;;;17.50;99.98;94505.52;1656029;85;21525;-51
2022/08/19 01:59:05;;;;;;;26.00;19.42;;;;;;;17.44;100.00;94502.70;1663500;85;21256;-52
2022/08/19 02:01:34;;;;;;;33.63;21.10;;;;;;;17.41;100.00;94500.14;1655717;85;21124;-51
2022/08/19 02:04:02;;;;;;;26.65;20.27;;;;;;;17.34;100.00;94495.83;1656700;85;21574;-52
2022/08/19 02:06:30;;;;;;;35.35;19.32;;;;;;;17.32;100.00;94490.59;1659327;85;21019;-51
2022/08/19 02:08:59;;;;;;;30.32;19.32;;;;;;;17.32;100.00;94489.95;1662214;85;21019;-51
2022/08/19 02:11:33;;;;;;;28.67;18.85;;;;;;;17.34;100.00;94495.83;1658782;85;22058;-50
2022/08/19 02:14:02;;;;;;;30.80;20.43;;;;;;;17.37;100.00;94495.45;1654298;85;21159;-50
2022/08/19 02:16:30;;;;;;;32.45;20.15;;;;;;;17.38;100.00;94492.80;1662371;85;21012;-51
2022/08/19 02:19:00;;;;;;;27.75;20.32;;;;;;;17.39;100.00;94500.66;1661810;85;20984;-52
2022/08/19 02:21:28;;;;;;;29.57;18.12;;;;;;;17.40;100.00;94500.78;1663204;85;20978;-51
2022/08/19 02:23:56;;;;;;;24.87;18.82;;;;;;;17.39;100.00;94499.88;1656091;85;21272;-52
2022/08/19 02:26:26;;;;;;;33.67;21.17;;;;;;;17.36;100.00;94498.09;1657379;85;20963;-51
2022/08/19 02:28:54;;;;;;;28.20;22.42;;;;;;;17.30;100.00;94490.33;1658361;85;21236;-51
2022/08/19 02:31:23;;;;;;;32.93;20.23;;;;;;;17.28;100.00;94488.67;1655820;85;21158;-51
2022/08/19 02:33:53;;;;;;;22.27;18.00;;;;;;;17.25;100.00;94492.45;1655797;85;21014;-52
2022/08/19 02:36:20;;;;;;;25.85;18.98;;;;;;;17.21;100.00;94495.45;1658394;85;21256;-51
2022/08/19 02:38:48;;;;;;;28.85;20.55;;;;;;;17.21;100.00;94495.45;1610133;85;20972;-51
2022/08/19 02:41:22;;;;;;;27.55;20.30;;;;;;;17.20;100.00;94485.59;1661469;85;21030;-51
2022/08/19 02:43:50;;;;;;;24.95;20.32;;;;;;;17.20;100.00;94484.81;1660486;85;21648;-51
2022/08/19 02:46:22;;;;;;;23.83;18.40;;;;;;;17.22;100.00;94479.52;1655412;85;21060;-51
2022/08/19 02:48:52;;;;;;;24.30;18.00;;;;;;;17.21;100.00;94489.89;1660260;85;21138;-51
2022/08/19 02:51:23;;;;;;;29.40;17.95;;;;;;;17.24;100.00;94483.98;1657282;85;21007;-51
2022/08/19 02:53:51;;;;;;;25.70;19.80;;;;;;;17.28;100.00;94492.84;1664666;85;21051;-52
2022/08/19 02:56:20;;;;;;;27.93;18.92;;;;;;;17.32;100.00;94490.59;1653594;85;21164;-51
2022/08/19 02:58:48;;;;;;;22.73;18.10;;;;;;;17.31;100.00;94493.98;1659899;85;21075;-52
2022/08/19 03:01:25;;;;;;;31.97;17.32;;;;;;;17.32;99.87;94500.33;1664671;85;21112;-52
2022/08/19 03:03:53;;;;;;;27.82;18.90;;;;;;;17.31;99.32;94507.14;1660425;85;21019;-52
2022/08/19 03:06:21;;;;;;;30.20;20.90;;;;;;;17.29;99.21;94518.00;1659092;85;21009;-53
2022/08/19 03:08:53;;;;;;;31.10;20.50;;;;;;;17.24;99.53;94517.34;1660265;85;21310;-51
2022/08/19 03:11:29;;;;;;;38.95;21.90;;;;;;;17.16;99.17;94516.27;1660217;85;21141;-52
2022/08/19 03:13:56;;;;;;;25.23;18.05;;;;;;;17.07;99.40;94515.07;1658734;85;21253;-52
2022/08/19 03:16:26;;;;;;;31.87;20.55;;;;;;;16.98;99.91;94509.68;1654480;85;20966;-52
2022/08/19 03:18:53;;;;;;;25.17;20.82;;;;;;;16.97;100.00;94512.33;1655875;85;21199;-52
2022/08/19 03:21:24;;;;;;;30.85;22.22;;;;;;;16.93;100.00;94515.97;1660619;86;21300;-52
2022/08/19 03:23:57;;;;;;;27.42;20.08;;;;;;;16.90;100.00;94529.47;1660743;85;20967;-53
2022/08/19 03:26:24;;;;;;;26.37;18.95;;;;;;;16.91;100.00;94532.38;1663706;85;21147;-53
2022/08/19 03:28:52;;;;;;;23.95;18.20;;;;;;;16.91;100.00;94535.16;1660178;86;21011;-53
2022/08/19 03:31:22;;;;;;;28.70;19.67;;;;;;;16.87;100.00;94540.18;1661120;86;21588;-52
2022/08/19 03:33:52;;;;;;;28.60;19.37;;;;;;;16.82;100.00;94529.76;1662045;86;21120;-52
2022/08/19 03:36:26;;;;;;;34.33;20.10;;;;;;;16.78;100.00;94527.22;1660107;85;21084;-53
2022/08/19 03:38:54;;;;;;;22.23;17.30;;;;;;;16.70;100.00;94525.38;1665475;85;21272;-53
2022/08/19 03:41:24;;;;;;;25.85;17.27;;;;;;;16.72;100.00;94525.00;1657907;85;21013;-52
2022/08/19 03:43:52;;;;;;;26.05;18.50;;;;;;;16.75;100.00;94520.48;1662972;86;21047;-51
2022/08/19 03:46:24;;;;;;;25.23;18.07;;;;;;;16.80;100.00;94528.10;1624421;86;21301;-53
2022/08/19 03:48:53;;;;;;;24.40;19.37;;;;;;;16.87;100.00;94538.79;1658935;85;21051;-52
2022/08/19 03:51:30;;;;;;;26.40;19.25;;;;;;;16.92;100.00;94534.64;1658311;86;21259;-53
2022/08/19 03:54:00;;;;;;;28.40;18.27;;;;;;;16.96;100.00;94542.77;1671824;84;21739;-52
2022/08/19 03:56:28;;;;;;;24.20;17.82;;;;;;;16.97;100.00;94542.91;1650220;85;21039;-52
2022/08/19 03:58:57;;;;;;;23.45;19.50;;;;;;;16.99;100.00;94550.89;1657351;85;21035;-52
2022/08/19 04:01:26;;;;;;;29.60;19.65;;;;;;;17.02;100.00;94551.30;1666554;84;20967;-53
2022/08/19 04:03:56;;;;;;;31.30;22.07;;;;;;;17.08;100.00;94545.78;1661325;83;21221;-52
2022/08/19 04:06:27;;;;;;;28.87;19.45;;;;;;;17.07;100.00;94551.21;1683462;83;20942;-52
2022/08/19 04:08:56;;;;;;;27.73;18.48;;;;;;;17.06;100.00;94555.25;1689252;85;21585;-51
2022/08/19 04:11:27;;;;;;;30.40;19.77;;;;;;;17.04;100.00;94550.78;1669116;84;21087;-51
2022/08/19 04:13:57;;;;;;;28.50;20.43;;;;;;;17.02;100.00;94554.07;1667186;84;21015;-51
2022/08/19 04:16:30;;;;;;;27.87;21.20;;;;;;;17.03;100.00;94553.43;1680222;84;21289;-51
2022/08/19 04:18:59;;;;;;;27.95;18.80;;;;;;;16.98;100.00;94545.20;1644806;84;21089;-51
2022/08/19 04:21:28;;;;;;;25.30;17.40;;;;;;;16.91;100.00;94537.94;1665535;85;21017;-51
2022/08/19 04:23:55;;;;;;;25.10;18.23;;;;;;;16.89;100.00;94543.23;1674080;83;20977;-51
2022/08/19 04:26:30;;;;;;;27.62;20.50;;;;;;;16.90;100.00;94553.83;1690075;84;21490;-51
2022/08/19 04:29:00;;;;;;;32.42;21.40;;;;;;;16.94;100.00;94548.81;1672780;83;21393;-51
2022/08/19 04:31:30;;;;;;;29.45;19.67;;;;;;;16.89;100.00;94544.62;1653010;85;21086;-51
2022/08/19 04:33:59;;;;;;;24.37;17.23;;;;;;;16.83;100.00;94543.17;1664339;85;21551;-53
2022/08/19 04:36:30;;;;;;;37.30;18.73;;;;;;;16.83;100.00;94541.01;1688388;83;21145;-51
2022/08/19 04:39:00;;;;;;;27.77;18.87;;;;;;;16.83;100.00;94532.67;1664871;83;20987;-51
2022/08/19 04:44:17;;;;;;;21.52;17.50;;;;;;;16.89;100.00;94538.41;1666684;84;20962;-51
2022/08/19 04:46:47;;;;;;;24.72;18.07;;;;;;;16.97;100.00;94537.34;1687084;85;22854;-51
2022/08/19 04:49:16;;;;;;;23.27;17.48;;;;;;;17.02;100.00;94530.45;1670556;85;21015;-52
2022/08/19 04:51:46;;;;;;;28.57;20.77;;;;;;;17.14;100.00;94528.51;1665097;85;20974;-52
2022/08/19 04:54:16;;;;;;;32.65;20.75;;;;;;;17.23;100.00;94528.31;1667553;83;21250;-52
2022/08/19 04:56:43;;;;;;;24.15;19.20;;;;;;;17.36;100.00;94537.03;1676300;84;20979;-53
2022/08/19 04:59:11;;;;;;;24.80;19.27;;;;;;;17.54;100.00;94529.07;1692700;83;21030;-52
2022/08/19 05:01:39;;;;;;;24.20;16.85;;;;;;;17.73;100.00;94532.97;1672612;84;21105;-52
2022/08/19 05:04:07;;;;;;;24.45;16.95;;;;;;;17.86;100.00;94533.27;1690914;83;21128;-52
2022/08/19 05:06:35;;;;;;;26.17;19.95;;;;;;;17.94;100.00;94533.56;1676850;84;22101;-53
2022/08/19 05:09:04;;;;;;;28.25;18.37;;;;;;;17.97;99.53;94532.58;1676627;84;21172;-53
2022/08/19 05:11:37;;;;;;;20.95;17.12;;;;;;;17.96;98.72;94539.38;1675713;84;21580;-52
2022/08/19 05:14:09;;;;;;;22.82;15.28;;;;;;;17.96;98.13;94526.86;1660751;83;21538;-53
2022/08/19 05:16:36;;;;;;;23.60;17.32;;;;;;;17.91;97.96;94518.64;1663890;83;21069;-51
2022/08/19 05:24:37;;;;;;;21.90;18.10;;;;;;;18.08;98.68;94531.22;1673487;84;20994;-52
2022/08/19 05:27:05;;;;;;;20.95;16.23;;;;;;;18.11;97.95;94527.43;1662189;84;21533;-52
2022/08/19 05:29:34;;;;;;;22.02;17.55;;;;;;;18.17;98.09;94530.37;1675471;84;21450;-52
2022/08/19 05:32:04;;;;;;;20.52;18.32;;;;;;;18.29;97.91;94525.75;1671627;84;21917;-51
2022/08/19 05:34:33;;;;;;;25.20;18.42;;;;;;;18.38;96.90;94525.53;1665915;83;21244;-53
2022/08/19 05:37:02;;;;;;;25.75;16.87;;;;;;;18.41;96.00;94525.92;1673633;84;21089;-51
2022/08/19 05:39:31;;;;;;;51.77;16.93;;;;;;;18.38;95.63;94528.32;1673697;83;21199;-52
2022/08/19 05:42:02;;;;;;;19.52;15.68;;;;;;;18.35;95.94;94523.77;1679396;83;21140;-52
2022/08/19 05:44:31;;;;;;;19.45;16.70;;;;;;;18.39;96.23;94519.31;1659548;83;21942;-53
2022/08/19 05:47:00;;;;;;;20.17;17.27;;;;;;;18.47;95.70;94522.50;1684893;85;21006;-52
2022/08/19 05:49:28;;;;;;;22.05;15.78;;;;;;;18.51;95.70;94518.86;1645811;84;21455;-52
2022/08/19 05:51:55;;;;;;;16.17;14.33;;;;;;;18.56;95.38;94522.91;1671386;83;21034;-53
2022/08/19 05:54:24;;;;;;;20.62;14.38;;;;;;;18.64;95.35;94524.69;1645919;84;20979;-50
2022/08/19 05:56:52;;;;;;;18.35;15.80;;;;;;;18.72;94.98;94521.55;1646926;85;21887;-50
2022/08/19 05:59:21;;;;;;;25.15;17.92;;;;;;;18.79;94.95;94523.83;1667314;82;21116;-49
2022/08/19 06:01:56;;;;;;;19.62;15.88;;;;;;;18.90;94.92;94528.03;1662408;83;21087;-50
2022/08/19 06:04:22;;;;;;;18.15;16.07;;;;;;;19.06;94.71;94524.49;1660424;81;21123;-59
2022/08/19 06:06:52;;;;;;;16.25;14.25;;;;;;;19.22;93.37;94532.10;1664397;83;21499;-51
2022/08/19 06:09:20;;;;;;;18.20;14.90;;;;;;;19.37;92.41;94523.48;1646024;84;21159;-52
2022/08/19 06:11:58;;;;;;;24.40;16.02;;;;;;;19.48;91.21;94527.02;1635464;84;21109;-54
2022/08/19 06:14:29;;;;;;;18.60;15.65;;;;;;;19.55;91.00;94531.33;1650507;84;21113;-51
2022/08/19 06:16:59;;;;;;;21.80;15.43;;;;;;;19.67;90.84;94524.43;1640914;84;21075;-50
2022/08/19 06:19:29;;;;;;;17.73;13.85;;;;;;;19.79;90.46;94532.29;1660132;82;21078;-49
2022/08/19 06:21:58;;;;;;;16.87;13.85;;;;;;;19.86;89.32;94524.77;1649488;83;21292;-50
2022/08/19 06:24:27;;;;;;;19.62;15.20;;;;;;;19.93;88.99;94524.23;1660997;84;21097;-51
2022/08/19 06:26:57;;;;;;;20.23;15.78;;;;;;;19.95;88.64;94517.50;1622845;86;21106;-52
2022/08/19 06:29:25;;;;;;;21.10;16.60;;;;;;;20.04;88.42;94525.62;1616836;86;21026;-51
2022/08/19 06:31:55;;;;;;;24.55;14.43;;;;;;;20.15;88.20;94526.97;1684695;82;21180;-53
2022/08/19 06:34:27;;;;;;;16.73;14.00;;;;;;;20.29;87.98;94525.27;1672792;83;21755;-48
2022/08/19 06:36:54;;;;;;;17.07;15.10;;;;;;;20.45;87.54;94519.47;1668223;83;21089;-50
2022/08/19 06:39:26;;;;;;;23.77;15.80;;;;;;;20.62;87.25;94521.53;1656240;84;21061;-53
2022/08/19 06:41:56;;;;;;;17.32;15.23;;;;;;;20.75;86.58;94527.31;1666876;83;21089;-51
2022/08/19 06:44:25;;;;;;;43.38;17.62;;;;;;;20.90;85.58;94526.35;1665816;83;21120;-50
2022/08/19 06:46:54;;;;;;;19.12;13.20;;;;;;;21.03;84.86;94527.89;1666860;84;21293;-50
2022/08/19 06:49:22;;;;;;;18.67;12.37;;;;;;;21.15;83.86;94526.53;1667866;84;21055;-51
2022/08/19 06:51:50;;;;;;;19.10;14.45;;;;;;;21.22;83.14;94521.77;1682210;83;21084;-52
2022/08/19 06:54:18;;;;;;;21.25;15.00;;;;;;;21.24;82.14;94516.40;1681568;83;21014;-51
2022/08/19 06:56:45;;;;;;;20.75;14.03;;;;;;;21.25;81.67;94511.69;1661966;84;21130;-50
2022/08/19 06:59:17;;;;;;;22.45;13.88;;;;;;;21.28;81.60;94512.05;1647759;84;21149;-52
2022/08/19 07:01:48;;;;;;;20.05;12.35;;;;;;;21.33;81.43;94499.29;1648713;84;21043;-52
2022/08/19 07:04:18;;;;;;;20.10;13.88;;;;;;;21.41;81.20;94508.62;1660774;84;21589;-50
2022/08/19 07:06:48;;;;;;;19.77;13.53;;;;;;;21.49;80.65;94507.52;1674668;83;21139;-52
2022/08/19 07:09:18;;;;;;;18.37;12.90;;;;;;;21.57;80.43;94509.11;1671521;83;21062;-49
2022/08/19 07:11:47;;;;;;;16.70;14.53;;;;;;;21.66;80.01;94506.75;1661214;85;21259;-51
2022/08/19 07:14:16;;;;;;;17.87;13.72;;;;;;;21.76;79.45;94501.55;1680232;83;21008;-52
2022/08/19 07:16:45;;;;;;;21.12;11.60;;;;;;;21.83;79.33;94498.19;1665573;84;21089;-50
2022/08/19 07:19:14;;;;;;;16.85;12.58;;;;;;;21.97;79.00;94494.19;1643223;86;21121;-52
2022/08/19 07:21:42;;;;;;;16.70;12.65;;;;;;;22.08;78.40;94486.43;1632028;86;21032;-50
2022/08/19 07:24:12;;;;;;;17.15;13.53;;;;;;;22.16;77.90;94482.51;1638365;86;21257;-51
2022/08/19 07:26:41;;;;;;;21.87;14.07;;;;;;;22.30;77.48;94481.28;1647294;85;21180;-52
2022/08/19 07:29:10;;;;;;;17.20;13.13;;;;;;;22.42;77.24;94478.48;1654640;85;21232;-50
2022/08/19 07:31:38;;;;;;;26.42;13.65;;;;;;;22.56;77.34;94479.31;1640642;86;21092;-53
2022/08/19 07:34:08;;;;;;;29.82;13.20;;;;;;;22.74;76.92;94476.51;1634509;85;21398;-54
2022/08/19 07:36:40;;;;;;;22.42;14.05;;;;;;;22.88;75.95;94471.05;1641035;84;21273;-49
2022/08/19 07:39:18;;;;;;;22.75;14.30;;;;;;;23.00;75.72;94473.05;1653600;85;20979;-50
2022/08/19 07:41:45;;;;;;;18.02;13.58;;;;;;;23.12;75.72;94477.98;1662001;84;21119;-50
2022/08/19 07:44:14;;;;;;;20.55;14.28;;;;;;;23.26;74.68;94477.37;1665346;84;21217;-50
2022/08/19 07:46:45;;;;;;;19.77;12.50;;;;;;;23.35;74.42;94474.91;1663667;84;21098;-50
2022/08/19 07:49:18;;;;;;;19.75;13.18;;;;;;;23.49;74.31;94470.84;1659356;84;21269;-51
2022/08/19 07:51:43;;;;;;;16.42;12.00;;;;;;;23.64;73.22;94466.86;1626476;85;22515;-50
2022/08/19 07:54:11;;;;;;;16.55;11.38;;;;;;;23.77;72.46;94471.73;1640439;85;21164;-50
2022/08/19 07:56:39;;;;;;;29.70;13.40;;;;;;;23.87;72.32;94468.61;1636593;85;21145;-52
2022/08/19 07:59:08;;;;;;;18.90;12.37;;;;;;;23.95;72.53;94463.88;1637303;85;22160;-52
2022/08/19 08:01:39;;;;;;;17.60;11.83;;;;;;;24.08;73.01;94465.39;1645991;85;21314;-52
2022/08/19 08:09:43;;;;;;;15.38;11.03;;;;;;;24.47;71.35;94456.89;1637650;85;21095;-51
2022/08/19 08:12:26;;;;;;;20.25;11.33;;;;;;;24.65;70.94;94458.83;1635356;85;21078;-53
2022/08/19 08:14:57;;;;;;;14.35;11.05;;;;;;;24.79;70.60;94455.31;1650358;84;21233;-51
2022/08/19 08:17:27;;;;;;;20.30;11.05;;;;;;;24.94;69.94;94451.25;1620483;87;21014;-51
2022/08/19 08:19:55;;;;;;;15.50;10.15;;;;;;;25.05;68.66;94445.34;1634806;85;21113;-50
2022/08/19 08:25:14;;;;;;;13.10;10.85;;;;;;;25.28;67.89;94453.39;1643042;85;21174;-51
2022/08/19 08:27:45;;;;;;;14.78;10.35;;;;;;;25.41;67.82;94443.44;1607611;88;21690;-51
2022/08/19 08:30:17;;;;;;;19.73;11.60;;;;;;;25.51;67.86;94437.43;1660006;83;21109;-50
2022/08/19 08:32:45;;;;;;;12.53;9.83;;;;;;;25.61;67.69;94436.38;1669280;84;21066;-51
2022/08/19 08:35:14;;;;;;;15.80;9.55;;;;;;;25.72;67.00;94436.73;1663779;84;21085;-50
2022/08/19 08:37:43;;;;;;;19.00;10.72;;;;;;;25.78;65.55;94438.74;1673466;84;21128;-50
2022/08/19 08:40:25;;;;;;;14.73;10.23;;;;;;;25.86;64.74;94440.33;1648197;84;21192;-50
2022/08/19 08:43:01;;;;;;;11.83;9.18;;;;;;;25.93;63.90;94446.69;1674047;84;21160;-49
2022/08/19 08:45:29;;;;;;;21.75;9.05;;;;;;;26.05;63.35;94444.41;1681185;83;21077;-49
2022/08/19 08:47:58;;;;;;;14.13;9.08;;;;;;;26.18;62.89;94433.66;1656770;84;21195;-51
2022/08/19 08:50:39;;;;;;;9.43;8.25;;;;;;;26.27;62.58;94442.36;1639527;85;21110;-53
2022/08/19 08:53:08;;;;;;;11.30;8.58;;;;;;;26.34;61.52;94441.63;1672394;83;21472;-54
2022/08/19 08:55:35;;;;;;;13.65;7.05;;;;;;;26.44;61.46;94434.16;1675624;84;21066;-51
2022/08/19 08:58:07;;;;;;;9.63;6.80;;;;;;;26.53;60.35;94437.89;1707712;83;20976;-51
2022/08/19 09:00:38;;;;;;;12.78;6.83;;;;;;;26.61;57.21;94440.09;1667342;83;21073;-50
2022/08/19 09:03:19;;;;;;;14.35;6.80;;;;;;;26.72;56.74;94443.23;1665698;84;21077;-48
2022/08/19 09:06:01;;;;;;;14.80;6.50;;;;;;;26.77;56.00;94443.06;1679591;83;21133;-51
2022/08/19 09:08:56;;;;;;;13.62;7.00;;;;;;;26.81;55.02;94439.22;1680808;83;21164;-51
2022/08/19 09:11:43;;;;;;;11.83;6.97;;;;;;;26.81;53.67;94446.27;1655799;83;21083;-52
2022/08/19 09:14:31;;;;;;;13.83;7.87;;;;;;;26.83;54.12;94449.96;1675574;82;21121;-53
2022/08/19 09:17:03;;;;;;;14.87;7.37;;;;;;;26.84;54.08;94446.56;1665069;84;21115;-50
2022/08/19 09:19:30;;;;;;;13.18;6.70;;;;;;;26.84;52.97;94445.15;1662067;84;21237;-52
2022/08/19 09:22:00;;;;;;;11.83;6.35;;;;;;;26.89;53.39;94446.30;1662811;84;21025;-50
2022/08/19 09:24:27;;;;;;;16.32;7.50;;;;;;;26.97;53.45;94447.06;1627966;85;21040;-53
2022/08/19 09:26:55;;;;;;;40.52;28.55;;;;;;;27.07;53.63;94442.39;1642376;84;21122;-52
2022/08/19 09:29:24;;;;;;;19.60;14.50;;;;;;;27.17;53.50;94442.71;1642253;85;21032;-51
2022/08/19 09:31:52;;;;;;;16.82;12.00;;;;;;;27.27;52.88;94443.68;1620031;87;21884;-51
2022/08/19 09:34:20;;;;;;;11.28;8.33;;;;;;;27.36;53.63;94437.45;1630825;86;21669;-52
2022/08/19 09:36:55;;;;;;;9.08;6.55;;;;;;;27.47;51.75;94439.16;1652018;84;21126;-52
2022/08/19 09:39:23;;;;;;;13.75;6.78;;;;;;;27.51;51.34;94436.70;1653577;83;20946;-50
2022/08/19 09:41:52;;;;;;;10.65;7.00;;;;;;;27.53;50.53;94443.30;1676533;84;20961;-52
2022/08/19 09:44:20;;;;;;;13.20;7.28;;;;;;;27.57;50.24;94436.61;1686077;84;21854;-51
2022/08/19 09:46:47;;;;;;;11.63;5.83;;;;;;;27.63;50.78;94430.13;1671319;84;20982;-52
2022/08/19 09:49:21;;;;;;;14.30;6.75;;;;;;;27.77;50.89;94435.68;1664572;83;21181;-53
2022/08/19 09:51:47;;;;;;;9.43;5.95;;;;;;;27.86;50.35;94425.87;1628497;84;21473;-52
2022/08/19 09:54:15;;;;;;;8.90;6.22;;;;;;;27.94;51.02;94426.72;1668171;83;21109;-50
2022/08/19 09:56:46;;;;;;;10.25;6.67;;;;;;;28.04;49.92;94433.95;1667987;83;40418;-50
2022/08/19 09:59:14;;;;;;;8.65;7.05;;;;;;;28.14;49.32;94435.63;1680163;84;21054;-52
2022/08/19 10:01:42;;;;;;;13.78;6.45;;;;;;;28.28;48.59;94435.51;1656866;84;21022;-52
2022/08/19 10:04:11;;;;;;;11.63;5.97;;;;;;;28.47;47.78;94430.84;1676484;84;21097;-51
2022/08/19 10:06:41;;;;;;;8.58;5.95;;;;;;;28.68;48.30;94429.89;1674164;83;21104;-50
2022/08/19 10:09:10;;;;;;;13.13;5.85;;;;;;;29.00;47.21;94424.28;1654782;84;21262;-49
2022/08/19 10:11:40;;;;;;;8.20;5.40;;;;;;;29.28;47.00;94428.18;1652109;84;20982;-49
2022/08/19 10:14:09;;;;;;;10.35;6.05;;;;;;;29.58;45.51;94425.89;1693220;82;21038;-51
2022/08/19 10:16:39;;;;;;;10.63;6.22;;;;;;;29.86;44.22;94430.38;1674936;84;21132;-51
2022/08/19 10:19:07;;;;;;;9.50;5.65;;;;;;;30.09;44.40;94424.58;1655678;84;21077;-51
2022/08/19 10:21:36;;;;;;;12.45;7.40;;;;;;;30.33;46.01;94425.94;1672379;85;21222;-53
2022/08/19 10:24:05;;;;;;;11.90;6.33;;;;;;;30.59;45.37;94421.70;1671897;85;21113;-51
2022/08/19 10:26:36;;;;;;;16.12;5.85;;;;;;;30.82;44.22;94421.50;1663434;84;21002;-53
2022/08/19 10:29:05;;;;;;;10.70;5.62;;;;;;;31.04;42.25;94423.28;1657093;85;21443;-52
2022/08/19 10:31:33;;;;;;;12.47;5.83;;;;;;;31.25;41.47;94425.67;1677255;84;21076;-51
2022/08/19 10:34:02;;;;;;;9.25;5.47;;;;;;;31.42;40.23;94420.66;1668708;85;21261;-53
2022/08/19 10:36:34;;;;;;;11.90;4.67;;;;;;;31.61;40.55;94420.73;1677626;85;21066;-51
2022/08/19 10:39:08;;;;;;;8.60;4.60;;;;;;;31.93;41.53;94431.08;1674599;84;21132;-52
2022/08/19 10:41:37;;;;;;;10.75;5.15;;;;;;;32.26;40.13;94423.73;1655716;86;21127;-52
2022/08/19 10:44:08;;;;;;;11.48;5.33;;;;;;;32.67;39.36;94430.36;1581103;87;21031;-49
2022/08/19 10:46:41;;;;;;;11.80;5.00;;;;;;;32.99;38.31;94422.09;1608575;86;21266;-52
2022/08/19 10:49:09;;;;;;;7.65;4.85;;;;;;;33.38;38.08;94423.56;1673238;83;21066;-51
2022/08/19 10:54:11;;;;;;;11.12;4.50;;;;;;;33.97;35.36;94425.64;1601191;85;21050;-51
2022/08/19 10:56:51;;;;;;;5.87;4.10;;;;;;;34.20;36.67;94419.38;1679889;85;21167;-50
2022/08/19 10:59:23;;;;;;;7.42;3.95;;;;;;;34.49;36.83;94416.39;1680114;84;21255;-51
2022/08/19 11:01:50;;;;;;;14.63;4.50;;;;;;;34.89;35.70;94414.06;1672600;82;21018;-50
2022/08/19 11:04:19;;;;;;;8.20;4.50;;;;;;;35.23;33.82;94415.63;1667720;83;21505;-51
2022/08/19 11:06:48;;;;;;;11.73;4.47;;;;;;;35.41;33.58;94420.34;1673495;84;21087;-51
2022/08/19 11:09:17;;;;;;;8.15;4.17;;;;;;;35.38;33.22;94425.18;1663243;83;21047;-50
2022/08/19 11:11:47;;;;;;;15.18;4.83;;;;;;;35.24;31.87;94427.13;1646956;85;21250;-51
2022/08/19 11:14:18;;;;;;;5.35;3.47;;;;;;;35.24;32.40;94425.70;1682827;83;21097;-51
2022/08/19 11:16:45;;;;;;;9.10;3.58;;;;;;;35.47;31.32;94417.85;1684582;83;20964;-53
2022/08/19 11:19:15;;;;;;;6.97;3.25;;;;;;;35.66;30.52;94415.55;1683529;81;21056;-51
2022/08/19 11:21:45;;;;;;;10.43;4.03;;;;;;;35.88;30.41;94412.63;1677346;84;21118;-52
2022/08/19 11:24:15;;;;;;;12.63;4.10;;;;;;;36.03;30.98;94410.70;1678102;84;21118;-53
2022/08/19 11:26:43;;;;;;;10.18;3.83;;;;;;;36.39;31.64;94414.36;1677656;83;21078;-52
2022/08/19 11:29:14;;;;;;;6.03;3.58;;;;;;;36.76;31.06;94415.89;1695442;83;21072;-54
2022/08/19 11:31:44;;;;;;;9.10;4.28;;;;;;;37.06;31.18;94404.01;1668128;83;26618;-54
2022/08/19 11:34:16;;;;;;;10.98;3.80;;;;;;;37.21;30.36;94412.81;1658588;85;21129;-51
2022/08/19 11:36:44;;;;;;;;;;;;;;;37.35;29.44;94404.23;1668906;84;21151;-52
2022/08/19 11:39:15;;;;;;;9.13;3.90;;;;;;;37.60;30.01;94410.72;1670610;84;20157;-53
2022/08/19 11:41:42;;;;;;;7.40;3.77;;;;;;;37.84;29.13;94401.98;1657600;84;21118;-52
2022/08/19 11:44:09;;;;;;;4.95;3.33;;;;;;;38.09;29.99;94408.42;1676629;82;21139;-53
2022/08/19 11:46:37;;;;;;;12.18;3.80;;;;;;;38.30;28.90;94409.53;1670485;84;21106;-50
2022/08/19 11:49:09;;;;;;;9.50;3.37;;;;;;;38.51;28.21;94402.03;1676433;82;21133;-55